sensor_id;sensor_type;location;lat;lon;timestamp;temperature;humidity
22383;DHT22;11359;45.802;13.530;2023-02-20T00:01:31;19.30;45.40
22383;DHT22;11359;45.802;13.530;2023-02-20T00:03:57;19.30;45.40
22383;DHT22;11359;45.802;13.530;2023-02-20T00:06:23;19.30;45.50
22383;DHT22;11359;45.802;13.530;2023-02-20T00:08:48;19.20;45.60
22383;DHT22;11359;45.802;13.530;2023-02-20T00:11:14;19.10;45.60
22383;DHT22;11359;45.802;13.530;2023-02-20T00:13:47;19.10;45.70
22383;DHT22;11359;45.802;13.530;2023-02-20T00:16:13;19.10;45.70
22383;DHT22;11359;45.802;13.530;2023-02-20T00:18:39;19.00;45.60
22383;DHT22;11359;45.802;13.530;2023-02-20T00:21:05;19.00;45.60
22383;DHT22;11359;45.802;13.530;2023-02-20T00:23:34;18.90;45.60
22383;DHT22;11359;45.802;13.530;2023-02-20T00:26:00;18.90;45.70
22383;DHT22;11359;45.802;13.530;2023-02-20T00:28:26;18.80;45.80
22383;DHT22;11359;45.802;13.530;2023-02-20T00:30:54;18.80;45.90
22383;DHT22;11359;45.802;13.530;2023-02-20T00:33:20;18.70;45.90
22383;DHT22;11359;45.802;13.530;2023-02-20T00:35:45;18.70;46.10
22383;DHT22;11359;45.802;13.530;2023-02-20T00:38:12;18.60;46.10
22383;DHT22;11359;45.802;13.530;2023-02-20T00:40:38;18.50;46.10
22383;DHT22;11359;45.802;13.530;2023-02-20T00:43:03;18.50;46.30
22383;DHT22;11359;45.802;13.530;2023-02-20T00:45:29;18.50;46.30
22383;DHT22;11359;45.802;13.530;2023-02-20T00:47:55;18.50;46.50
22383;DHT22;11359;45.802;13.530;2023-02-20T00:50:20;18.50;46.60
22383;DHT22;11359;45.802;13.530;2023-02-20T00:52:46;18.40;46.60
22383;DHT22;11359;45.802;13.530;2023-02-20T00:55:12;18.40;46.70
22383;DHT22;11359;45.802;13.530;2023-02-20T00:57:39;18.40;46.70
22383;DHT22;11359;45.802;13.530;2023-02-20T01:00:06;18.30;46.70
22383;DHT22;11359;45.802;13.530;2023-02-20T01:02:32;18.30;46.70
22383;DHT22;11359;45.802;13.530;2023-02-20T01:04:58;18.30;46.80
22383;DHT22;11359;45.802;13.530;2023-02-20T01:07:24;18.30;46.90
22383;DHT22;11359;45.802;13.530;2023-02-20T01:09:50;18.20;46.90
22383;DHT22;11359;45.802;13.530;2023-02-20T01:12:16;18.20;46.90
22383;DHT22;11359;45.802;13.530;2023-02-20T01:14:41;18.20;47.00
22383;DHT22;11359;45.802;13.530;2023-02-20T01:17:08;18.10;47.00
22383;DHT22;11359;45.802;13.530;2023-02-20T01:19:33;18.10;47.10
22383;DHT22;11359;45.802;13.530;2023-02-20T01:21:59;18.10;47.20
22383;DHT22;11359;45.802;13.530;2023-02-20T01:24:25;18.10;47.20
22383;DHT22;11359;45.802;13.530;2023-02-20T01:26:51;18.00;47.30
22383;DHT22;11359;45.802;13.530;2023-02-20T01:29:17;18.00;47.30
22383;DHT22;11359;45.802;13.530;2023-02-20T01:31:49;18.00;47.40
22383;DHT22;11359;45.802;13.530;2023-02-20T01:34:16;18.00;47.40
22383;DHT22;11359;45.802;13.530;2023-02-20T01:36:49;17.90;47.40
22383;DHT22;11359;45.802;13.530;2023-02-20T01:39:17;17.90;47.40
22383;DHT22;11359;45.802;13.530;2023-02-20T01:41:43;17.80;47.50
22383;DHT22;11359;45.802;13.530;2023-02-20T01:44:17;17.80;47.50
22383;DHT22;11359;45.802;13.530;2023-02-20T01:46:47;17.80;47.60
22383;DHT22;11359;45.802;13.530;2023-02-20T01:49:21;17.80;47.70
22383;DHT22;11359;45.802;13.530;2023-02-20T01:51:56;17.80;47.70
22383;DHT22;11359;45.802;13.530;2023-02-20T01:54:25;17.70;47.70
22383;DHT22;11359;45.802;13.530;2023-02-20T01:56:53;17.70;47.80
22383;DHT22;11359;45.802;13.530;2023-02-20T01:59:22;17.60;47.80
22383;DHT22;11359;45.802;13.530;2023-02-20T02:01:47;17.60;47.80
22383;DHT22;11359;45.802;13.530;2023-02-20T02:04:14;17.60;47.80
22383;DHT22;11359;45.802;13.530;2023-02-20T02:06:43;17.60;47.90
22383;DHT22;11359;45.802;13.530;2023-02-20T02:09:30;17.50;47.90
22383;DHT22;11359;45.802;13.530;2023-02-20T02:11:57;17.50;48.00
22383;DHT22;11359;45.802;13.530;2023-02-20T02:14:23;17.50;48.00
22383;DHT22;11359;45.802;13.530;2023-02-20T02:16:51;17.40;48.00
22383;DHT22;11359;45.802;13.530;2023-02-20T02:19:43;17.40;48.10
22383;DHT22;11359;45.802;13.530;2023-02-20T02:25:18;17.40;48.20
22383;DHT22;11359;45.802;13.530;2023-02-20T02:42:34;17.10;48.50
22383;DHT22;11359;45.802;13.530;2023-02-20T02:45:11;17.20;48.60
22383;DHT22;11359;45.802;13.530;2023-02-20T02:50:16;17.00;48.60
22383;DHT22;11359;45.802;13.530;2023-02-20T02:52:44;17.00;48.80
22383;DHT22;11359;45.802;13.530;2023-02-20T02:55:22;17.00;48.80
22383;DHT22;11359;45.802;13.530;2023-02-20T02:57:49;17.00;48.90
22383;DHT22;11359;45.802;13.530;2023-02-20T03:05:39;16.90;49.00
22383;DHT22;11359;45.802;13.530;2023-02-20T03:08:25;16.90;49.00
22383;DHT22;11359;45.802;13.530;2023-02-20T03:11:21;16.90;49.60
22383;DHT22;11359;45.802;13.530;2023-02-20T03:19:51;16.80;49.10
22383;DHT22;11359;45.802;13.530;2023-02-20T03:22:18;16.80;49.10
22383;DHT22;11359;45.802;13.530;2023-02-20T03:24:49;16.80;49.20
22383;DHT22;11359;45.802;13.530;2023-02-20T03:33:25;16.70;49.30
22383;DHT22;11359;45.802;13.530;2023-02-20T03:36:15;16.70;49.40
22383;DHT22;11359;45.802;13.530;2023-02-20T03:39:05;16.60;49.40
22383;DHT22;11359;45.802;13.530;2023-02-20T03:41:52;16.60;49.40
22383;DHT22;11359;45.802;13.530;2023-02-20T03:44:37;16.60;49.50
22383;DHT22;11359;45.802;13.530;2023-02-20T03:47:05;16.50;49.40
22383;DHT22;11359;45.802;13.530;2023-02-20T03:49:37;16.50;49.50
22383;DHT22;11359;45.802;13.530;2023-02-20T03:52:04;16.50;49.60
22383;DHT22;11359;45.802;13.530;2023-02-20T03:54:31;16.50;49.60
22383;DHT22;11359;45.802;13.530;2023-02-20T03:57:26;16.40;49.60
22383;DHT22;11359;45.802;13.530;2023-02-20T03:59:58;16.40;49.70
22383;DHT22;11359;45.802;13.530;2023-02-20T04:02:38;16.40;49.70
22383;DHT22;11359;45.802;13.530;2023-02-20T04:05:11;16.40;49.70
22383;DHT22;11359;45.802;13.530;2023-02-20T04:11:18;16.30;49.80
22383;DHT22;11359;45.802;13.530;2023-02-20T04:13:46;16.30;49.80
22383;DHT22;11359;45.802;13.530;2023-02-20T04:16:13;16.30;49.90
22383;DHT22;11359;45.802;13.530;2023-02-20T04:18:39;16.20;49.90
22383;DHT22;11359;45.802;13.530;2023-02-20T04:21:11;16.20;49.90
22383;DHT22;11359;45.802;13.530;2023-02-20T04:23:43;16.20;50.00
22383;DHT22;11359;45.802;13.530;2023-02-20T04:26:17;16.10;50.00
22383;DHT22;11359;45.802;13.530;2023-02-20T04:28:44;16.10;50.10
22383;DHT22;11359;45.802;13.530;2023-02-20T04:31:11;16.10;50.10
22383;DHT22;11359;45.802;13.530;2023-02-20T04:33:37;16.10;50.20
22383;DHT22;11359;45.802;13.530;2023-02-20T04:36:03;16.10;50.20
22383;DHT22;11359;45.802;13.530;2023-02-20T04:38:29;16.00;50.30
22383;DHT22;11359;45.802;13.530;2023-02-20T04:40:55;16.00;50.30
22383;DHT22;11359;45.802;13.530;2023-02-20T04:43:20;16.00;50.30
22383;DHT22;11359;45.802;13.530;2023-02-20T04:45:46;16.00;50.40
22383;DHT22;11359;45.802;13.530;2023-02-20T04:48:12;16.00;50.40
22383;DHT22;11359;45.802;13.530;2023-02-20T04:50:39;16.00;50.40
22383;DHT22;11359;45.802;13.530;2023-02-20T04:53:06;16.00;50.50
22383;DHT22;11359;45.802;13.530;2023-02-20T04:55:32;16.00;50.50
22383;DHT22;11359;45.802;13.530;2023-02-20T04:57:57;16.00;50.50
22383;DHT22;11359;45.802;13.530;2023-02-20T05:00:25;15.90;50.60
22383;DHT22;11359;45.802;13.530;2023-02-20T05:02:52;15.90;50.60
22383;DHT22;11359;45.802;13.530;2023-02-20T05:05:27;15.90;50.60
22383;DHT22;11359;45.802;13.530;2023-02-20T05:08:01;15.90;50.60
22383;DHT22;11359;45.802;13.530;2023-02-20T05:10:29;15.90;50.70
22383;DHT22;11359;45.802;13.530;2023-02-20T05:12:55;15.90;50.70
22383;DHT22;11359;45.802;13.530;2023-02-20T05:15:22;15.90;50.80
22383;DHT22;11359;45.802;13.530;2023-02-20T05:17:48;15.90;50.80
22383;DHT22;11359;45.802;13.530;2023-02-20T05:20:16;15.90;50.80
22383;DHT22;11359;45.802;13.530;2023-02-20T05:22:43;15.80;50.90
22383;DHT22;11359;45.802;13.530;2023-02-20T05:25:09;15.90;50.90
22383;DHT22;11359;45.802;13.530;2023-02-20T05:27:35;15.80;50.90
22383;DHT22;11359;45.802;13.530;2023-02-20T05:30:01;15.90;51.00
22383;DHT22;11359;45.802;13.530;2023-02-20T05:32:29;15.90;51.00
22383;DHT22;11359;45.802;13.530;2023-02-20T05:34:55;15.80;51.70
22383;DHT22;11359;45.802;13.530;2023-02-20T05:37:23;15.90;51.10
22383;DHT22;11359;45.802;13.530;2023-02-20T05:39:49;15.80;51.10
22383;DHT22;11359;45.802;13.530;2023-02-20T05:42:15;15.90;51.20
22383;DHT22;11359;45.802;13.530;2023-02-20T05:44:41;15.90;51.20
22383;DHT22;11359;45.802;13.530;2023-02-20T05:47:07;15.90;51.30
22383;DHT22;11359;45.802;13.530;2023-02-20T05:49:33;16.00;51.30
22383;DHT22;11359;45.802;13.530;2023-02-20T05:52:01;16.00;51.30
22383;DHT22;11359;45.802;13.530;2023-02-20T05:54:26;16.00;51.20
22383;DHT22;11359;45.802;13.530;2023-02-20T05:56:53;16.00;51.20
22383;DHT22;11359;45.802;13.530;2023-02-20T05:59:21;16.10;51.20
22383;DHT22;11359;45.802;13.530;2023-02-20T06:01:47;16.10;51.20
22383;DHT22;11359;45.802;13.530;2023-02-20T06:04:17;16.10;51.20
22383;DHT22;11359;45.802;13.530;2023-02-20T06:06:43;16.20;51.20
22383;DHT22;11359;45.802;13.530;2023-02-20T06:09:11;16.20;51.20
22383;DHT22;11359;45.802;13.530;2023-02-20T06:11:38;16.30;51.20
22383;DHT22;11359;45.802;13.530;2023-02-20T06:14:05;16.30;51.10
22383;DHT22;11359;45.802;13.530;2023-02-20T06:16:31;16.30;51.00
22383;DHT22;11359;45.802;13.530;2023-02-20T06:19:00;16.40;51.00
22383;DHT22;11359;45.802;13.530;2023-02-20T06:21:27;16.40;51.00
22383;DHT22;11359;45.802;13.530;2023-02-20T06:23:53;16.50;51.00
22383;DHT22;11359;45.802;13.530;2023-02-20T06:26:22;16.60;51.00
22383;DHT22;11359;45.802;13.530;2023-02-20T06:28:48;16.60;50.90
22383;DHT22;11359;45.802;13.530;2023-02-20T06:31:24;16.70;50.90
22383;DHT22;11359;45.802;13.530;2023-02-20T06:33:53;16.70;50.80
22383;DHT22;11359;45.802;13.530;2023-02-20T06:36:22;16.70;50.70
22383;DHT22;11359;45.802;13.530;2023-02-20T06:38:51;16.80;50.70
22383;DHT22;11359;45.802;13.530;2023-02-20T06:41:17;16.90;50.60
22383;DHT22;11359;45.802;13.530;2023-02-20T06:43:44;16.90;50.60
22383;DHT22;11359;45.802;13.530;2023-02-20T06:46:09;17.00;50.60
22383;DHT22;11359;45.802;13.530;2023-02-20T06:48:46;17.00;50.50
22383;DHT22;11359;45.802;13.530;2023-02-20T06:51:21;17.10;50.50
22383;DHT22;11359;45.802;13.530;2023-02-20T06:53:48;17.10;50.40
22383;DHT22;11359;45.802;13.530;2023-02-20T06:56:19;17.20;50.50
22383;DHT22;11359;45.802;13.530;2023-02-20T06:58:46;17.30;50.40
22383;DHT22;11359;45.802;13.530;2023-02-20T07:01:12;17.30;50.30
22383;DHT22;11359;45.802;13.530;2023-02-20T07:03:38;17.30;50.20
22383;DHT22;11359;45.802;13.530;2023-02-20T07:06:04;17.40;50.20
22383;DHT22;11359;45.802;13.530;2023-02-20T07:08:29;17.40;50.20
22383;DHT22;11359;45.802;13.530;2023-02-20T07:10:55;17.40;50.20
22383;DHT22;11359;45.802;13.530;2023-02-20T07:13:21;17.50;50.10
22383;DHT22;11359;45.802;13.530;2023-02-20T07:15:47;17.50;50.10
22383;DHT22;11359;45.802;13.530;2023-02-20T07:18:13;17.60;50.10
22383;DHT22;11359;45.802;13.530;2023-02-20T07:20:39;17.60;50.10
22383;DHT22;11359;45.802;13.530;2023-02-20T07:23:05;17.70;50.10
22383;DHT22;11359;45.802;13.530;2023-02-20T07:25:31;17.70;50.00
22383;DHT22;11359;45.802;13.530;2023-02-20T07:27:57;17.80;50.00
22383;DHT22;11359;45.802;13.530;2023-02-20T07:30:23;17.80;50.00
22383;DHT22;11359;45.802;13.530;2023-02-20T07:32:50;17.80;50.00
22383;DHT22;11359;45.802;13.530;2023-02-20T07:35:15;17.90;50.00
22383;DHT22;11359;45.802;13.530;2023-02-20T07:37:41;17.90;50.00
22383;DHT22;11359;45.802;13.530;2023-02-20T07:40:08;18.00;50.00
22383;DHT22;11359;45.802;13.530;2023-02-20T07:42:34;18.00;49.90
22383;DHT22;11359;45.802;13.530;2023-02-20T07:44:59;18.00;49.80
22383;DHT22;11359;45.802;13.530;2023-02-20T07:47:25;18.00;49.80
22383;DHT22;11359;45.802;13.530;2023-02-20T07:49:51;18.10;49.80
22383;DHT22;11359;45.802;13.530;2023-02-20T07:52:17;18.10;49.70
22383;DHT22;11359;45.802;13.530;2023-02-20T07:54:42;18.10;49.70
22383;DHT22;11359;45.802;13.530;2023-02-20T07:57:09;18.10;49.60
22383;DHT22;11359;45.802;13.530;2023-02-20T07:59:34;18.20;49.60
22383;DHT22;11359;45.802;13.530;2023-02-20T08:02:00;18.20;49.60
22383;DHT22;11359;45.802;13.530;2023-02-20T08:04:26;18.20;49.60
22383;DHT22;11359;45.802;13.530;2023-02-20T08:06:52;18.20;49.60
22383;DHT22;11359;45.802;13.530;2023-02-20T08:09:18;18.20;49.60
22383;DHT22;11359;45.802;13.530;2023-02-20T08:11:44;18.30;49.70
22383;DHT22;11359;45.802;13.530;2023-02-20T08:14:12;18.30;49.70
22383;DHT22;11359;45.802;13.530;2023-02-20T08:16:38;18.30;49.70
22383;DHT22;11359;45.802;13.530;2023-02-20T08:19:04;18.30;49.70
22383;DHT22;11359;45.802;13.530;2023-02-20T08:21:31;18.30;49.60
22383;DHT22;11359;45.802;13.530;2023-02-20T08:23:56;18.40;49.70
22383;DHT22;11359;45.802;13.530;2023-02-20T08:26:22;18.40;49.60
22383;DHT22;11359;45.802;13.530;2023-02-20T08:28:49;18.40;49.50
22383;DHT22;11359;45.802;13.530;2023-02-20T08:31:16;18.40;49.50
22383;DHT22;11359;45.802;13.530;2023-02-20T08:33:43;18.40;49.40
22383;DHT22;11359;45.802;13.530;2023-02-20T08:36:08;18.40;49.40
22383;DHT22;11359;45.802;13.530;2023-02-20T08:38:36;18.40;49.30
22383;DHT22;11359;45.802;13.530;2023-02-20T08:41:08;18.40;49.30
22383;DHT22;11359;45.802;13.530;2023-02-20T08:43:34;18.40;49.30
22383;DHT22;11359;45.802;13.530;2023-02-20T08:46:00;18.40;49.30
22383;DHT22;11359;45.802;13.530;2023-02-20T08:48:26;18.40;49.30
22383;DHT22;11359;45.802;13.530;2023-02-20T08:50:52;18.40;49.30
22383;DHT22;11359;45.802;13.530;2023-02-20T08:53:19;18.50;49.40
22383;DHT22;11359;45.802;13.530;2023-02-20T08:55:49;18.50;49.40
22383;DHT22;11359;45.802;13.530;2023-02-20T08:58:21;18.50;49.40
22383;DHT22;11359;45.802;13.530;2023-02-20T09:00:48;18.50;49.40
22383;DHT22;11359;45.802;13.530;2023-02-20T09:03:14;18.50;49.40
22383;DHT22;11359;45.802;13.530;2023-02-20T09:05:41;18.50;49.40
22383;DHT22;11359;45.802;13.530;2023-02-20T09:08:07;18.50;49.30
22383;DHT22;11359;45.802;13.530;2023-02-20T09:10:33;18.50;49.30
22383;DHT22;11359;45.802;13.530;2023-02-20T09:12:58;18.50;49.30
22383;DHT22;11359;45.802;13.530;2023-02-20T09:15:24;18.50;49.30
22383;DHT22;11359;45.802;13.530;2023-02-20T09:17:51;18.50;49.30
22383;DHT22;11359;45.802;13.530;2023-02-20T09:20:21;18.50;49.30
22383;DHT22;11359;45.802;13.530;2023-02-20T09:22:47;18.50;49.30
22383;DHT22;11359;45.802;13.530;2023-02-20T09:25:14;18.50;49.30
22383;DHT22;11359;45.802;13.530;2023-02-20T09:27:40;18.50;49.30
22383;DHT22;11359;45.802;13.530;2023-02-20T09:30:06;18.50;49.30
22383;DHT22;11359;45.802;13.530;2023-02-20T09:32:32;18.50;49.30
22383;DHT22;11359;45.802;13.530;2023-02-20T09:34:57;18.50;49.30
22383;DHT22;11359;45.802;13.530;2023-02-20T09:37:23;18.50;49.40
22383;DHT22;11359;45.802;13.530;2023-02-20T09:39:49;18.50;49.40
22383;DHT22;11359;45.802;13.530;2023-02-20T09:42:19;18.40;49.40
22383;DHT22;11359;45.802;13.530;2023-02-20T09:50:05;18.40;49.40
22383;DHT22;11359;45.802;13.530;2023-02-20T09:52:38;18.40;49.40
22383;DHT22;11359;45.802;13.530;2023-02-20T09:55:10;18.40;49.30
22383;DHT22;11359;45.802;13.530;2023-02-20T09:57:39;18.40;49.40
22383;DHT22;11359;45.802;13.530;2023-02-20T10:00:09;18.40;49.40
22383;DHT22;11359;45.802;13.530;2023-02-20T10:02:45;18.40;49.50
22383;DHT22;11359;45.802;13.530;2023-02-20T10:05:19;18.40;49.50
22383;DHT22;11359;45.802;13.530;2023-02-20T10:07:47;18.40;49.60
22383;DHT22;11359;45.802;13.530;2023-02-20T10:16:01;18.40;49.60
22383;DHT22;11359;45.802;13.530;2023-02-20T10:21:48;18.40;49.60
22383;DHT22;11359;45.802;13.530;2023-02-20T10:27:40;18.30;49.60
22383;DHT22;11359;45.802;13.530;2023-02-20T10:30:11;18.30;49.50
22383;DHT22;11359;45.802;13.530;2023-02-20T10:32:55;18.30;49.50
22383;DHT22;11359;45.802;13.530;2023-02-20T10:35:52;18.30;49.40
22383;DHT22;11359;45.802;13.530;2023-02-20T10:38:22;18.20;49.40
22383;DHT22;11359;45.802;13.530;2023-02-20T10:41:13;18.20;49.40
22383;DHT22;11359;45.802;13.530;2023-02-20T10:43:47;18.20;49.50
22383;DHT22;11359;45.802;13.530;2023-02-20T10:49:26;18.10;49.50
22383;DHT22;11359;45.802;13.530;2023-02-20T10:51:59;18.10;49.50
22383;DHT22;11359;45.802;13.530;2023-02-20T10:54:42;18.10;49.60
22383;DHT22;11359;45.802;13.530;2023-02-20T10:57:19;18.10;49.80
22383;DHT22;11359;45.802;13.530;2023-02-20T10:59:55;18.10;49.80
22383;DHT22;11359;45.802;13.530;2023-02-20T11:02:32;18.10;49.90
22383;DHT22;11359;45.802;13.530;2023-02-20T11:05:11;18.20;50.00
22383;DHT22;11359;45.802;13.530;2023-02-20T11:07:38;18.20;50.00
22383;DHT22;11359;45.802;13.530;2023-02-20T11:10:05;18.20;50.00
22383;DHT22;11359;45.802;13.530;2023-02-20T11:12:47;18.20;49.90
22383;DHT22;11359;45.802;13.530;2023-02-20T11:15:17;18.20;49.90
22383;DHT22;11359;45.802;13.530;2023-02-20T11:17:43;18.20;49.90
22383;DHT22;11359;45.802;13.530;2023-02-20T11:22:57;18.20;49.90
22383;DHT22;11359;45.802;13.530;2023-02-20T11:25:36;18.20;49.90
22383;DHT22;11359;45.802;13.530;2023-02-20T11:28:28;18.30;50.00
22383;DHT22;11359;45.802;13.530;2023-02-20T11:31:00;18.30;50.00
22383;DHT22;11359;45.802;13.530;2023-02-20T11:33:44;18.30;49.90
22383;DHT22;11359;45.802;13.530;2023-02-20T11:36:18;18.30;50.00
22383;DHT22;11359;45.802;13.530;2023-02-20T11:38:47;18.30;50.00
22383;DHT22;11359;45.802;13.530;2023-02-20T11:43:43;18.30;50.00
22383;DHT22;11359;45.802;13.530;2023-02-20T11:46:22;18.40;50.10
22383;DHT22;11359;45.802;13.530;2023-02-20T11:54:12;18.50;50.10
22383;DHT22;11359;45.802;13.530;2023-02-20T12:05:09;18.60;50.10
22383;DHT22;11359;45.802;13.530;2023-02-20T12:07:54;18.60;50.10
22383;DHT22;11359;45.802;13.530;2023-02-20T12:12:52;18.70;50.20
22383;DHT22;11359;45.802;13.530;2023-02-20T12:15:22;18.80;50.20
22383;DHT22;11359;45.802;13.530;2023-02-20T12:17:59;18.80;50.20
22383;DHT22;11359;45.802;13.530;2023-02-20T12:20:28;18.90;50.10
22383;DHT22;11359;45.802;13.530;2023-02-20T12:23:17;18.90;50.10
22383;DHT22;11359;45.802;13.530;2023-02-20T12:26:14;19.00;50.00
22383;DHT22;11359;45.802;13.530;2023-02-20T12:37:55;19.30;49.90
22383;DHT22;11359;45.802;13.530;2023-02-20T12:43:22;19.40;49.90
22383;DHT22;11359;45.802;13.530;2023-02-20T12:46:37;19.50;49.80
22383;DHT22;11359;45.802;13.530;2023-02-20T12:57:15;19.70;49.60
22383;DHT22;11359;45.802;13.530;2023-02-20T12:59:55;19.70;49.60
22383;DHT22;11359;45.802;13.530;2023-02-20T13:02:48;19.80;49.50
22383;DHT22;11359;45.802;13.530;2023-02-20T13:05:22;19.90;49.50
22383;DHT22;11359;45.802;13.530;2023-02-20T13:07:52;20.00;49.50
22383;DHT22;11359;45.802;13.530;2023-02-20T13:10:31;20.00;49.40
22383;DHT22;11359;45.802;13.530;2023-02-20T13:12:58;20.10;49.40
22383;DHT22;11359;45.802;13.530;2023-02-20T13:18:33;20.20;49.30
22383;DHT22;11359;45.802;13.530;2023-02-20T13:21:12;20.20;49.20
22383;DHT22;11359;45.802;13.530;2023-02-20T13:23:39;20.30;49.10
22383;DHT22;11359;45.802;13.530;2023-02-20T13:29:15;20.40;49.20
22383;DHT22;11359;45.802;13.530;2023-02-20T13:31:52;20.50;49.10
22383;DHT22;11359;45.802;13.530;2023-02-20T13:36:44;20.60;48.70
22383;DHT22;11359;45.802;13.530;2023-02-20T13:52:42;20.90;47.90
22383;DHT22;11359;45.802;13.530;2023-02-20T13:57:49;20.90;47.80
22383;DHT22;11359;45.802;13.530;2023-02-20T14:03:00;21.10;47.80
22383;DHT22;11359;45.802;13.530;2023-02-20T14:05:34;21.10;47.60
22383;DHT22;11359;45.802;13.530;2023-02-20T14:07:59;21.10;47.40
22383;DHT22;11359;45.802;13.530;2023-02-20T14:10:39;21.20;47.40
22383;DHT22;11359;45.802;13.530;2023-02-20T14:13:26;21.20;47.30
22383;DHT22;11359;45.802;13.530;2023-02-20T14:15:55;21.30;47.40
22383;DHT22;11359;45.802;13.530;2023-02-20T14:18:31;21.30;47.30
22383;DHT22;11359;45.802;13.530;2023-02-20T14:21:17;21.40;47.10
22383;DHT22;11359;45.802;13.530;2023-02-20T14:23:45;21.40;47.10
22383;DHT22;11359;45.802;13.530;2023-02-20T14:28:45;21.50;47.10
22383;DHT22;11359;45.802;13.530;2023-02-20T14:31:29;21.60;47.10
22383;DHT22;11359;45.802;13.530;2023-02-20T14:34:08;21.60;46.90
22383;DHT22;11359;45.802;13.530;2023-02-20T14:36:57;21.60;46.80
22383;DHT22;11359;45.802;13.530;2023-02-20T14:42:14;21.70;46.60
22383;DHT22;11359;45.802;13.530;2023-02-20T14:44:41;21.80;46.60
22383;DHT22;11359;45.802;13.530;2023-02-20T14:49:32;21.80;46.50
22383;DHT22;11359;45.802;13.530;2023-02-20T14:52:15;21.80;46.50
22383;DHT22;11359;45.802;13.530;2023-02-20T14:54:48;21.90;46.40
22383;DHT22;11359;45.802;13.530;2023-02-20T14:57:20;21.90;46.30
22383;DHT22;11359;45.802;13.530;2023-02-20T14:59:46;21.90;46.30
22383;DHT22;11359;45.802;13.530;2023-02-20T15:02:23;21.90;46.20
22383;DHT22;11359;45.802;13.530;2023-02-20T15:04:52;21.90;46.20
22383;DHT22;11359;45.802;13.530;2023-02-20T15:07:23;21.90;46.20
22383;DHT22;11359;45.802;13.530;2023-02-20T15:09:51;21.90;46.10
22383;DHT22;11359;45.802;13.530;2023-02-20T15:12:38;21.90;46.80
22383;DHT22;11359;45.802;13.530;2023-02-20T15:15:11;21.90;46.20
22383;DHT22;11359;45.802;13.530;2023-02-20T15:17:42;21.90;46.20
22383;DHT22;11359;45.802;13.530;2023-02-20T15:20:19;21.90;46.20
22383;DHT22;11359;45.802;13.530;2023-02-20T15:22:45;21.90;46.20
22383;DHT22;11359;45.802;13.530;2023-02-20T15:28:42;21.90;45.90
22383;DHT22;11359;45.802;13.530;2023-02-20T15:33:39;21.90;45.80
22383;DHT22;11359;45.802;13.530;2023-02-20T15:36:10;21.90;45.70
22383;DHT22;11359;45.802;13.530;2023-02-20T15:38:36;21.90;45.60
22383;DHT22;11359;45.802;13.530;2023-02-20T15:41:03;21.90;45.60
22383;DHT22;11359;45.802;13.530;2023-02-20T15:43:29;21.90;45.50
22383;DHT22;11359;45.802;13.530;2023-02-20T15:45:55;21.80;45.40
22383;DHT22;11359;45.802;13.530;2023-02-20T15:48:21;21.90;45.40
22383;DHT22;11359;45.802;13.530;2023-02-20T15:50:48;21.80;45.30
22383;DHT22;11359;45.802;13.530;2023-02-20T15:53:20;21.80;45.30
22383;DHT22;11359;45.802;13.530;2023-02-20T15:55:46;21.80;45.30
22383;DHT22;11359;45.802;13.530;2023-02-20T16:00:48;21.70;45.10
22383;DHT22;11359;45.802;13.530;2023-02-20T16:03:16;21.70;45.10
22383;DHT22;11359;45.802;13.530;2023-02-20T16:05:42;21.70;45.10
22383;DHT22;11359;45.802;13.530;2023-02-20T16:08:08;21.70;45.10
22383;DHT22;11359;45.802;13.530;2023-02-20T16:10:34;21.70;45.10
22383;DHT22;11359;45.802;13.530;2023-02-20T16:13:00;21.70;45.10
22383;DHT22;11359;45.802;13.530;2023-02-20T16:15:27;21.70;45.10
22383;DHT22;11359;45.802;13.530;2023-02-20T16:17:54;21.70;45.10
22383;DHT22;11359;45.802;13.530;2023-02-20T16:20:28;21.60;45.00
22383;DHT22;11359;45.802;13.530;2023-02-20T16:22:54;21.70;45.70
22383;DHT22;11359;45.802;13.530;2023-02-20T16:25:21;21.60;45.00
22383;DHT22;11359;45.802;13.530;2023-02-20T16:27:50;21.60;44.90
22383;DHT22;11359;45.802;13.530;2023-02-20T16:32:52;21.60;44.90
22383;DHT22;11359;45.802;13.530;2023-02-20T16:35:18;21.60;44.80
22383;DHT22;11359;45.802;13.530;2023-02-20T16:37:44;21.50;44.70
22383;DHT22;11359;45.802;13.530;2023-02-20T16:40:12;21.50;44.70
22383;DHT22;11359;45.802;13.530;2023-02-20T16:42:39;21.50;44.70
22383;DHT22;11359;45.802;13.530;2023-02-20T16:45:14;21.40;44.70
22383;DHT22;11359;45.802;13.530;2023-02-20T16:47:40;21.40;44.70
22383;DHT22;11359;45.802;13.530;2023-02-20T16:50:07;21.40;44.70
22383;DHT22;11359;45.802;13.530;2023-02-20T16:52:39;21.40;44.60
22383;DHT22;11359;45.802;13.530;2023-02-20T16:55:17;21.40;44.60
22383;DHT22;11359;45.802;13.530;2023-02-20T16:57:43;21.40;44.40
22383;DHT22;11359;45.802;13.530;2023-02-20T17:00:16;21.30;44.20
22383;DHT22;11359;45.802;13.530;2023-02-20T17:02:43;21.30;44.20
22383;DHT22;11359;45.802;13.530;2023-02-20T17:05:10;21.30;44.30
22383;DHT22;11359;45.802;13.530;2023-02-20T17:07:36;21.20;44.30
22383;DHT22;11359;45.802;13.530;2023-02-20T17:10:06;21.20;44.40
22383;DHT22;11359;45.802;13.530;2023-02-20T17:12:32;21.20;44.70
22383;DHT22;11359;45.802;13.530;2023-02-20T17:14:59;21.20;44.60
22383;DHT22;11359;45.802;13.530;2023-02-20T17:17:26;21.20;44.50
22383;DHT22;11359;45.802;13.530;2023-02-20T17:19:52;21.20;44.60
22383;DHT22;11359;45.802;13.530;2023-02-20T17:22:20;21.10;44.50
22383;DHT22;11359;45.802;13.530;2023-02-20T17:24:47;21.20;44.50
22383;DHT22;11359;45.802;13.530;2023-02-20T17:27:13;21.20;44.50
22383;DHT22;11359;45.802;13.530;2023-02-20T17:29:43;21.10;44.40
22383;DHT22;11359;45.802;13.530;2023-02-20T17:32:09;21.10;44.40
22383;DHT22;11359;45.802;13.530;2023-02-20T17:34:38;21.10;44.40
22383;DHT22;11359;45.802;13.530;2023-02-20T17:37:05;21.10;44.40
22383;DHT22;11359;45.802;13.530;2023-02-20T17:39:31;21.10;44.40
22383;DHT22;11359;45.802;13.530;2023-02-20T17:41:57;21.10;44.40
22383;DHT22;11359;45.802;13.530;2023-02-20T17:44:26;21.10;44.40
22383;DHT22;11359;45.802;13.530;2023-02-20T17:46:54;21.10;44.40
22383;DHT22;11359;45.802;13.530;2023-02-20T17:49:20;21.10;44.40
22383;DHT22;11359;45.802;13.530;2023-02-20T17:51:50;21.10;44.40
22383;DHT22;11359;45.802;13.530;2023-02-20T17:54:17;21.00;44.30
22383;DHT22;11359;45.802;13.530;2023-02-20T17:56:48;21.00;44.30
22383;DHT22;11359;45.802;13.530;2023-02-20T17:59:14;21.00;44.20
22383;DHT22;11359;45.802;13.530;2023-02-20T18:01:42;21.00;44.30